sensor_id;sensor_type;location;lat;lon;timestamp;temperature;humidity
8882;DHT22;4477;48.736;9.176;2022-10-22T00:00:04;11.60;99.90
8882;DHT22;4477;48.736;9.176;2022-10-22T00:02:31;11.70;99.90
8882;DHT22;4477;48.736;9.176;2022-10-22T00:04:57;11.70;99.90
8882;DHT22;4477;48.736;9.176;2022-10-22T00:07:25;11.60;99.90
8882;DHT22;4477;48.736;9.176;2022-10-22T00:09:53;11.60;99.90
8882;DHT22;4477;48.736;9.176;2022-10-22T00:12:20;11.60;99.90
8882;DHT22;4477;48.736;9.176;2022-10-22T00:14:48;11.60;99.90
8882;DHT22;4477;48.736;9.176;2022-10-22T00:17:15;11.60;99.90
8882;DHT22;4477;48.736;9.176;2022-10-22T00:19:42;11.60;99.90
8882;DHT22;4477;48.736;9.176;2022-10-22T00:22:10;11.70;99.90
8882;DHT22;4477;48.736;9.176;2022-10-22T00:24:38;11.70;99.90
8882;DHT22;4477;48.736;9.176;2022-10-22T00:27:07;11.70;99.90
8882;DHT22;4477;48.736;9.176;2022-10-22T00:29:35;11.70;99.90
8882;DHT22;4477;48.736;9.176;2022-10-22T00:32:02;11.60;99.90
8882;DHT22;4477;48.736;9.176;2022-10-22T00:34:30;11.60;99.90
8882;DHT22;4477;48.736;9.176;2022-10-22T00:36:57;11.70;99.90
8882;DHT22;4477;48.736;9.176;2022-10-22T00:39:25;11.60;99.90
8882;DHT22;4477;48.736;9.176;2022-10-22T00:41:53;11.70;99.90
8882;DHT22;4477;48.736;9.176;2022-10-22T00:45:03;11.70;99.90
8882;DHT22;4477;48.736;9.176;2022-10-22T00:47:32;11.60;99.90
8882;DHT22;4477;48.736;9.176;2022-10-22T00:50:00;11.70;99.90
8882;DHT22;4477;48.736;9.176;2022-10-22T00:52:27;11.70;99.90
8882;DHT22;4477;48.736;9.176;2022-10-22T00:54:55;11.70;99.90
8882;DHT22;4477;48.736;9.176;2022-10-22T00:57:22;11.60;99.90
8882;DHT22;4477;48.736;9.176;2022-10-22T00:59:49;11.60;99.90
8882;DHT22;4477;48.736;9.176;2022-10-22T01:02:17;11.60;99.90
8882;DHT22;4477;48.736;9.176;2022-10-22T01:04:44;11.60;99.90
8882;DHT22;4477;48.736;9.176;2022-10-22T01:07:15;11.60;99.90
8882;DHT22;4477;48.736;9.176;2022-10-22T01:09:48;11.60;99.90
8882;DHT22;4477;48.736;9.176;2022-10-22T01:12:22;11.60;99.90
8882;DHT22;4477;48.736;9.176;2022-10-22T01:15:03;11.60;99.90
8882;DHT22;4477;48.736;9.176;2022-10-22T01:17:40;11.60;99.90
8882;DHT22;4477;48.736;9.176;2022-10-22T01:20:18;11.60;99.90
8882;DHT22;4477;48.736;9.176;2022-10-22T01:22:59;11.60;99.90
8882;DHT22;4477;48.736;9.176;2022-10-22T01:25:33;11.60;99.90
8882;DHT22;4477;48.736;9.176;2022-10-22T01:28:09;11.60;99.90
8882;DHT22;4477;48.736;9.176;2022-10-22T01:30:43;11.60;99.90
8882;DHT22;4477;48.736;9.176;2022-10-22T01:33:13;11.70;99.90
8882;DHT22;4477;48.736;9.176;2022-10-22T01:35:42;11.60;99.90
8882;DHT22;4477;48.736;9.176;2022-10-22T01:38:13;11.60;99.90
8882;DHT22;4477;48.736;9.176;2022-10-22T01:40:41;11.70;99.90
8882;DHT22;4477;48.736;9.176;2022-10-22T01:43:09;11.70;99.90
8882;DHT22;4477;48.736;9.176;2022-10-22T01:45:39;11.70;99.90
8882;DHT22;4477;48.736;9.176;2022-10-22T01:48:19;11.70;99.90
8882;DHT22;4477;48.736;9.176;2022-10-22T01:50:56;11.60;99.90
8882;DHT22;4477;48.736;9.176;2022-10-22T01:53:32;11.70;99.90
8882;DHT22;4477;48.736;9.176;2022-10-22T01:56:11;11.70;99.90
8882;DHT22;4477;48.736;9.176;2022-10-22T01:58:43;11.60;99.90
8882;DHT22;4477;48.736;9.176;2022-10-22T02:01:16;11.60;99.90
8882;DHT22;4477;48.736;9.176;2022-10-22T02:03:51;11.60;99.90
8882;DHT22;4477;48.736;9.176;2022-10-22T02:06:22;11.60;99.90
8882;DHT22;4477;48.736;9.176;2022-10-22T02:08:52;11.60;99.90
8882;DHT22;4477;48.736;9.176;2022-10-22T02:11:20;11.60;99.90
8882;DHT22;4477;48.736;9.176;2022-10-22T02:13:48;11.50;99.90
8882;DHT22;4477;48.736;9.176;2022-10-22T02:16:20;11.60;99.90
8882;DHT22;4477;48.736;9.176;2022-10-22T02:18:52;11.60;99.90
8882;DHT22;4477;48.736;9.176;2022-10-22T02:21:20;11.50;99.90
8882;DHT22;4477;48.736;9.176;2022-10-22T02:23:47;11.60;99.90
8882;DHT22;4477;48.736;9.176;2022-10-22T02:26:20;11.60;99.90
8882;DHT22;4477;48.736;9.176;2022-10-22T02:28:53;11.60;99.90
8882;DHT22;4477;48.736;9.176;2022-10-22T02:31:25;11.60;99.90
8882;DHT22;4477;48.736;9.176;2022-10-22T02:33:58;11.60;99.90
8882;DHT22;4477;48.736;9.176;2022-10-22T02:36:27;11.60;99.90
8882;DHT22;4477;48.736;9.176;2022-10-22T02:38:55;11.60;99.90
8882;DHT22;4477;48.736;9.176;2022-10-22T02:41:22;11.60;99.90
8882;DHT22;4477;48.736;9.176;2022-10-22T02:43:52;11.60;99.90
8882;DHT22;4477;48.736;9.176;2022-10-22T02:46:20;11.60;99.90
8882;DHT22;4477;48.736;9.176;2022-10-22T02:48:47;11.60;99.90
8882;DHT22;4477;48.736;9.176;2022-10-22T02:51:15;11.60;99.90
8882;DHT22;4477;48.736;9.176;2022-10-22T02:53:42;11.60;99.90
8882;DHT22;4477;48.736;9.176;2022-10-22T02:56:09;11.60;99.90
8882;DHT22;4477;48.736;9.176;2022-10-22T02:58:37;11.60;99.90
8882;DHT22;4477;48.736;9.176;2022-10-22T03:01:04;11.60;99.90
8882;DHT22;4477;48.736;9.176;2022-10-22T03:03:31;11.60;99.90
8882;DHT22;4477;48.736;9.176;2022-10-22T03:05:58;11.60;99.90
8882;DHT22;4477;48.736;9.176;2022-10-22T03:08:26;11.60;99.90
8882;DHT22;4477;48.736;9.176;2022-10-22T03:10:53;11.60;99.90
8882;DHT22;4477;48.736;9.176;2022-10-22T03:13:19;11.60;99.90
8882;DHT22;4477;48.736;9.176;2022-10-22T03:15:48;11.60;99.90
8882;DHT22;4477;48.736;9.176;2022-10-22T03:18:15;11.60;99.90
8882;DHT22;4477;48.736;9.176;2022-10-22T03:20:42;11.60;99.90
8882;DHT22;4477;48.736;9.176;2022-10-22T03:23:09;11.60;99.90
8882;DHT22;4477;48.736;9.176;2022-10-22T03:25:39;11.60;99.90
8882;DHT22;4477;48.736;9.176;2022-10-22T03:28:08;11.60;99.90
8882;DHT22;4477;48.736;9.176;2022-10-22T03:30:36;11.60;99.90
8882;DHT22;4477;48.736;9.176;2022-10-22T03:33:03;11.60;99.90
8882;DHT22;4477;48.736;9.176;2022-10-22T03:35:30;11.60;99.90
8882;DHT22;4477;48.736;9.176;2022-10-22T03:37:59;11.60;99.90
8882;DHT22;4477;48.736;9.176;2022-10-22T03:40:26;11.70;99.90
8882;DHT22;4477;48.736;9.176;2022-10-22T03:42:54;11.60;99.90
8882;DHT22;4477;48.736;9.176;2022-10-22T03:45:21;11.60;99.90
8882;DHT22;4477;48.736;9.176;2022-10-22T03:47:48;11.70;99.90
8882;DHT22;4477;48.736;9.176;2022-10-22T03:50:15;11.60;99.90
8882;DHT22;4477;48.736;9.176;2022-10-22T03:52:42;11.60;99.90
8882;DHT22;4477;48.736;9.176;2022-10-22T03:55:09;11.60;99.90
8882;DHT22;4477;48.736;9.176;2022-10-22T03:57:35;11.60;99.90
8882;DHT22;4477;48.736;9.176;2022-10-22T04:00:05;11.60;99.90
8882;DHT22;4477;48.736;9.176;2022-10-22T04:02:32;11.60;99.90
8882;DHT22;4477;48.736;9.176;2022-10-22T04:04:59;11.60;99.90
8882;DHT22;4477;48.736;9.176;2022-10-22T04:07:26;11.50;99.90
8882;DHT22;4477;48.736;9.176;2022-10-22T04:09:53;11.60;99.90
8882;DHT22;4477;48.736;9.176;2022-10-22T04:12:20;11.50;99.90
8882;DHT22;4477;48.736;9.176;2022-10-22T04:14:47;11.50;99.90
8882;DHT22;4477;48.736;9.176;2022-10-22T04:17:15;11.50;99.90
8882;DHT22;4477;48.736;9.176;2022-10-22T04:19:42;11.50;99.90
8882;DHT22;4477;48.736;9.176;2022-10-22T04:22:08;11.50;99.90
8882;DHT22;4477;48.736;9.176;2022-10-22T04:24:35;11.40;99.90
8882;DHT22;4477;48.736;9.176;2022-10-22T04:27:02;11.40;99.90
8882;DHT22;4477;48.736;9.176;2022-10-22T04:29:29;11.40;99.90
8882;DHT22;4477;48.736;9.176;2022-10-22T04:31:56;11.40;99.90
8882;DHT22;4477;48.736;9.176;2022-10-22T04:34:27;11.50;99.90
8882;DHT22;4477;48.736;9.176;2022-10-22T04:36:54;11.50;99.90
8882;DHT22;4477;48.736;9.176;2022-10-22T04:39:21;11.50;99.90
8882;DHT22;4477;48.736;9.176;2022-10-22T04:41:48;11.40;99.90
8882;DHT22;4477;48.736;9.176;2022-10-22T04:44:14;11.40;99.90
8882;DHT22;4477;48.736;9.176;2022-10-22T04:46:41;11.40;99.90
8882;DHT22;4477;48.736;9.176;2022-10-22T04:49:08;11.40;99.90
8882;DHT22;4477;48.736;9.176;2022-10-22T04:51:36;11.50;99.90
8882;DHT22;4477;48.736;9.176;2022-10-22T04:54:04;11.50;99.90
8882;DHT22;4477;48.736;9.176;2022-10-22T04:56:31;11.50;99.90
8882;DHT22;4477;48.736;9.176;2022-10-22T04:58:59;11.40;99.90
8882;DHT22;4477;48.736;9.176;2022-10-22T05:01:28;11.40;99.90
8882;DHT22;4477;48.736;9.176;2022-10-22T05:03:57;11.40;99.90
8882;DHT22;4477;48.736;9.176;2022-10-22T05:06:25;11.30;99.90
8882;DHT22;4477;48.736;9.176;2022-10-22T05:08:54;11.40;99.90
8882;DHT22;4477;48.736;9.176;2022-10-22T05:11:23;11.40;99.90
8882;DHT22;4477;48.736;9.176;2022-10-22T05:13:50;11.40;99.90
8882;DHT22;4477;48.736;9.176;2022-10-22T05:16:17;11.30;99.90
8882;DHT22;4477;48.736;9.176;2022-10-22T05:18:44;11.30;99.90
8882;DHT22;4477;48.736;9.176;2022-10-22T05:21:13;11.30;99.90
8882;DHT22;4477;48.736;9.176;2022-10-22T05:23:40;11.20;99.90
8882;DHT22;4477;48.736;9.176;2022-10-22T05:26:10;11.30;99.90
8882;DHT22;4477;48.736;9.176;2022-10-22T05:28:37;11.20;99.90
8882;DHT22;4477;48.736;9.176;2022-10-22T05:31:05;11.20;99.90
8882;DHT22;4477;48.736;9.176;2022-10-22T05:33:32;11.20;99.90
8882;DHT22;4477;48.736;9.176;2022-10-22T05:36:00;11.20;99.90
8882;DHT22;4477;48.736;9.176;2022-10-22T05:38:27;11.20;99.90
8882;DHT22;4477;48.736;9.176;2022-10-22T05:41:00;11.20;99.90
8882;DHT22;4477;48.736;9.176;2022-10-22T05:43:32;11.20;99.90
8882;DHT22;4477;48.736;9.176;2022-10-22T05:46:01;11.20;99.90
8882;DHT22;4477;48.736;9.176;2022-10-22T05:48:28;11.20;99.90
8882;DHT22;4477;48.736;9.176;2022-10-22T05:50:55;11.20;99.90
8882;DHT22;4477;48.736;9.176;2022-10-22T05:53:29;11.30;99.90
8882;DHT22;4477;48.736;9.176;2022-10-22T05:55:59;11.20;99.90
8882;DHT22;4477;48.736;9.176;2022-10-22T05:58:25;11.20;99.90
8882;DHT22;4477;48.736;9.176;2022-10-22T06:00:54;11.30;99.90
8882;DHT22;4477;48.736;9.176;2022-10-22T06:03:21;11.30;99.90
8882;DHT22;4477;48.736;9.176;2022-10-22T06:05:47;11.30;99.90
8882;DHT22;4477;48.736;9.176;2022-10-22T06:08:14;11.40;99.90
8882;DHT22;4477;48.736;9.176;2022-10-22T06:10:42;11.50;99.90
8882;DHT22;4477;48.736;9.176;2022-10-22T06:13:09;11.50;99.90
8882;DHT22;4477;48.736;9.176;2022-10-22T06:15:36;11.50;99.90
8882;DHT22;4477;48.736;9.176;2022-10-22T06:18:04;11.50;99.90
8882;DHT22;4477;48.736;9.176;2022-10-22T06:20:33;11.60;99.90
8882;DHT22;4477;48.736;9.176;2022-10-22T06:23:00;11.60;99.90
8882;DHT22;4477;48.736;9.176;2022-10-22T06:25:27;11.70;99.90
8882;DHT22;4477;48.736;9.176;2022-10-22T06:27:53;11.70;99.90
8882;DHT22;4477;48.736;9.176;2022-10-22T06:30:20;11.70;99.90
8882;DHT22;4477;48.736;9.176;2022-10-22T06:32:47;11.80;99.90
8882;DHT22;4477;48.736;9.176;2022-10-22T06:35:15;11.80;99.90
8882;DHT22;4477;48.736;9.176;2022-10-22T06:37:42;11.80;99.90
8882;DHT22;4477;48.736;9.176;2022-10-22T06:40:10;11.80;99.90
8882;DHT22;4477;48.736;9.176;2022-10-22T06:42:37;11.80;99.90
8882;DHT22;4477;48.736;9.176;2022-10-22T06:45:05;11.90;99.90
8882;DHT22;4477;48.736;9.176;2022-10-22T06:47:32;11.90;99.90
8882;DHT22;4477;48.736;9.176;2022-10-22T06:49:59;11.90;99.90
8882;DHT22;4477;48.736;9.176;2022-10-22T06:52:27;12.00;99.90
8882;DHT22;4477;48.736;9.176;2022-10-22T06:54:53;12.10;99.90
8882;DHT22;4477;48.736;9.176;2022-10-22T06:57:20;12.10;99.90
8882;DHT22;4477;48.736;9.176;2022-10-22T06:59:47;12.20;99.90
8882;DHT22;4477;48.736;9.176;2022-10-22T07:02:14;12.20;99.90
8882;DHT22;4477;48.736;9.176;2022-10-22T07:04:41;12.30;99.90
8882;DHT22;4477;48.736;9.176;2022-10-22T07:07:08;12.40;99.90
8882;DHT22;4477;48.736;9.176;2022-10-22T07:09:36;12.40;99.90
8882;DHT22;4477;48.736;9.176;2022-10-22T07:12:04;12.50;99.90
8882;DHT22;4477;48.736;9.176;2022-10-22T07:14:31;12.50;99.90
8882;DHT22;4477;48.736;9.176;2022-10-22T07:16:58;12.60;99.90
8882;DHT22;4477;48.736;9.176;2022-10-22T07:19:25;12.70;99.90
8882;DHT22;4477;48.736;9.176;2022-10-22T07:21:51;12.70;99.90
8882;DHT22;4477;48.736;9.176;2022-10-22T07:24:18;12.70;99.90
8882;DHT22;4477;48.736;9.176;2022-10-22T07:26:47;12.80;99.90
8882;DHT22;4477;48.736;9.176;2022-10-22T07:29:14;12.90;99.90
8882;DHT22;4477;48.736;9.176;2022-10-22T07:31:40;12.90;99.90
8882;DHT22;4477;48.736;9.176;2022-10-22T07:34:08;12.90;99.90
8882;DHT22;4477;48.736;9.176;2022-10-22T07:36:35;13.00;99.90
8882;DHT22;4477;48.736;9.176;2022-10-22T07:39:02;13.00;99.90
8882;DHT22;4477;48.736;9.176;2022-10-22T07:41:30;12.90;99.90
8882;DHT22;4477;48.736;9.176;2022-10-22T07:43:59;12.80;99.90
8882;DHT22;4477;48.736;9.176;2022-10-22T07:46:26;12.90;99.90
8882;DHT22;4477;48.736;9.176;2022-10-22T07:48:52;12.90;99.90
8882;DHT22;4477;48.736;9.176;2022-10-22T07:51:19;12.90;99.90
8882;DHT22;4477;48.736;9.176;2022-10-22T07:53:46;12.90;99.90
8882;DHT22;4477;48.736;9.176;2022-10-22T07:56:13;13.10;99.90
8882;DHT22;4477;48.736;9.176;2022-10-22T07:58:40;13.20;99.90
8882;DHT22;4477;48.736;9.176;2022-10-22T08:01:08;13.30;99.90
8882;DHT22;4477;48.736;9.176;2022-10-22T08:03:35;13.40;99.90
8882;DHT22;4477;48.736;9.176;2022-10-22T08:06:02;13.50;99.90
8882;DHT22;4477;48.736;9.176;2022-10-22T08:08:29;13.70;99.90
8882;DHT22;4477;48.736;9.176;2022-10-22T08:10:57;13.90;99.90
8882;DHT22;4477;48.736;9.176;2022-10-22T08:13:25;13.90;99.90
8882;DHT22;4477;48.736;9.176;2022-10-22T08:15:52;13.90;99.90
8882;DHT22;4477;48.736;9.176;2022-10-22T08:18:20;13.90;99.90
8882;DHT22;4477;48.736;9.176;2022-10-22T08:20:47;14.00;99.90
8882;DHT22;4477;48.736;9.176;2022-10-22T08:23:13;13.90;99.90
8882;DHT22;4477;48.736;9.176;2022-10-22T08:25:40;14.00;99.90
8882;DHT22;4477;48.736;9.176;2022-10-22T08:28:07;14.00;99.90
8882;DHT22;4477;48.736;9.176;2022-10-22T08:30:34;14.20;99.90
8882;DHT22;4477;48.736;9.176;2022-10-22T08:33:03;14.10;99.90
8882;DHT22;4477;48.736;9.176;2022-10-22T08:35:31;14.00;99.90
8882;DHT22;4477;48.736;9.176;2022-10-22T08:37:59;14.00;99.90
8882;DHT22;4477;48.736;9.176;2022-10-22T08:40:31;13.80;99.90
8882;DHT22;4477;48.736;9.176;2022-10-22T08:46:29;13.80;99.90
8882;DHT22;4477;48.736;9.176;2022-10-22T08:49:00;14.70;99.90
8882;DHT22;4477;48.736;9.176;2022-10-22T08:51:33;15.50;99.90
8882;DHT22;4477;48.736;9.176;2022-10-22T08:54:13;16.20;99.90
8882;DHT22;4477;48.736;9.176;2022-10-22T08:56:44;16.70;99.90
8882;DHT22;4477;48.736;9.176;2022-10-22T08:59:16;17.00;99.90
8882;DHT22;4477;48.736;9.176;2022-10-22T09:01:47;17.40;99.90
8882;DHT22;4477;48.736;9.176;2022-10-22T09:04:18;17.60;99.90
8882;DHT22;4477;48.736;9.176;2022-10-22T09:06:51;17.40;99.90
8882;DHT22;4477;48.736;9.176;2022-10-22T09:09:19;17.40;99.90
8882;DHT22;4477;48.736;9.176;2022-10-22T09:11:48;17.30;99.90
8882;DHT22;4477;48.736;9.176;2022-10-22T09:14:17;17.20;99.90
8882;DHT22;4477;48.736;9.176;2022-10-22T09:17:04;17.40;99.90
8882;DHT22;4477;48.736;9.176;2022-10-22T09:19:39;17.70;99.90
8882;DHT22;4477;48.736;9.176;2022-10-22T09:22:19;17.80;99.90
8882;DHT22;4477;48.736;9.176;2022-10-22T09:24:53;18.00;99.90
8882;DHT22;4477;48.736;9.176;2022-10-22T09:27:26;17.90;99.90
8882;DHT22;4477;48.736;9.176;2022-10-22T09:29:54;18.30;99.90
8882;DHT22;4477;48.736;9.176;2022-10-22T09:32:21;18.30;99.90
8882;DHT22;4477;48.736;9.176;2022-10-22T09:34:49;18.60;99.90
8882;DHT22;4477;48.736;9.176;2022-10-22T09:37:26;18.70;99.90
8882;DHT22;4477;48.736;9.176;2022-10-22T09:39:55;19.00;99.90
8882;DHT22;4477;48.736;9.176;2022-10-22T09:42:23;19.00;99.90
8882;DHT22;4477;48.736;9.176;2022-10-22T09:44:52;19.00;99.90
8882;DHT22;4477;48.736;9.176;2022-10-22T09:47:32;19.10;99.90
8882;DHT22;4477;48.736;9.176;2022-10-22T09:50:19;19.10;99.90
8882;DHT22;4477;48.736;9.176;2022-10-22T09:52:58;19.70;99.90
8882;DHT22;4477;48.736;9.176;2022-10-22T09:55:25;19.90;99.90
8882;DHT22;4477;48.736;9.176;2022-10-22T09:57:53;19.70;99.90
8882;DHT22;4477;48.736;9.176;2022-10-22T10:00:21;19.70;99.90
8882;DHT22;4477;48.736;9.176;2022-10-22T10:02:53;20.00;99.90
8882;DHT22;4477;48.736;9.176;2022-10-22T10:05:26;20.20;99.90
8882;DHT22;4477;48.736;9.176;2022-10-22T10:07:55;20.30;99.90
8882;DHT22;4477;48.736;9.176;2022-10-22T10:10:31;20.50;99.90
8882;DHT22;4477;48.736;9.176;2022-10-22T10:13:07;20.90;99.90
8882;DHT22;4477;48.736;9.176;2022-10-22T10:15:39;21.20;99.90
8882;DHT22;4477;48.736;9.176;2022-10-22T10:18:19;21.10;99.90
8882;DHT22;4477;48.736;9.176;2022-10-22T10:20:55;21.10;99.90
8882;DHT22;4477;48.736;9.176;2022-10-22T10:23:30;20.80;99.90
8882;DHT22;4477;48.736;9.176;2022-10-22T10:26:03;20.50;99.90
8882;DHT22;4477;48.736;9.176;2022-10-22T10:28:45;21.00;99.00
8882;DHT22;4477;48.736;9.176;2022-10-22T10:31:22;21.10;99.90
8882;DHT22;4477;48.736;9.176;2022-10-22T10:33:59;21.10;99.90
8882;DHT22;4477;48.736;9.176;2022-10-22T10:36:34;21.50;97.80
8882;DHT22;4477;48.736;9.176;2022-10-22T10:39:10;21.70;97.30
8882;DHT22;4477;48.736;9.176;2022-10-22T10:41:47;22.10;95.10
8882;DHT22;4477;48.736;9.176;2022-10-22T10:44:35;22.40;92.50
8882;DHT22;4477;48.736;9.176;2022-10-22T10:47:12;22.60;94.60
8882;DHT22;4477;48.736;9.176;2022-10-22T10:49:43;23.10;92.00
8882;DHT22;4477;48.736;9.176;2022-10-22T10:52:18;22.90;87.70
8882;DHT22;4477;48.736;9.176;2022-10-22T10:54:56;22.00;90.40
8882;DHT22;4477;48.736;9.176;2022-10-22T10:57:35;22.20;91.60
8882;DHT22;4477;48.736;9.176;2022-10-22T11:00:07;22.50;91.10
8882;DHT22;4477;48.736;9.176;2022-10-22T11:03:02;22.90;90.80
8882;DHT22;4477;48.736;9.176;2022-10-22T11:05:37;23.30;84.40
8882;DHT22;4477;48.736;9.176;2022-10-22T11:08:11;23.20;86.50
8882;DHT22;4477;48.736;9.176;2022-10-22T11:10:44;23.90;83.50
8882;DHT22;4477;48.736;9.176;2022-10-22T11:13:18;24.30;80.10
8882;DHT22;4477;48.736;9.176;2022-10-22T11:15:49;24.80;74.20
8882;DHT22;4477;48.736;9.176;2022-10-22T11:18:21;24.50;74.70
8882;DHT22;4477;48.736;9.176;2022-10-22T11:20:55;24.10;74.80
8882;DHT22;4477;48.736;9.176;2022-10-22T11:23:31;24.30;71.60
8882;DHT22;4477;48.736;9.176;2022-10-22T11:26:00;24.50;77.50
8882;DHT22;4477;48.736;9.176;2022-10-22T11:28:32;24.80;75.50
8882;DHT22;4477;48.736;9.176;2022-10-22T11:31:03;25.30;70.10
8882;DHT22;4477;48.736;9.176;2022-10-22T11:33:36;25.30;70.00
8882;DHT22;4477;48.736;9.176;2022-10-22T11:36:08;25.60;68.00
8882;DHT22;4477;48.736;9.176;2022-10-22T11:38:36;25.70;66.70
8882;DHT22;4477;48.736;9.176;2022-10-22T11:41:10;26.20;66.10
8882;DHT22;4477;48.736;9.176;2022-10-22T11:46:38;25.90;65.20
8882;DHT22;4477;48.736;9.176;2022-10-22T11:49:17;26.20;65.30
8882;DHT22;4477;48.736;9.176;2022-10-22T11:51:45;26.30;65.80
8882;DHT22;4477;48.736;9.176;2022-10-22T11:54:39;26.00;63.50
8882;DHT22;4477;48.736;9.176;2022-10-22T11:57:25;25.80;61.20
8882;DHT22;4477;48.736;9.176;2022-10-22T11:59:56;26.10;62.30
8882;DHT22;4477;48.736;9.176;2022-10-22T12:02:37;25.80;61.20
8882;DHT22;4477;48.736;9.176;2022-10-22T12:08:20;25.90;62.70
8882;DHT22;4477;48.736;9.176;2022-10-22T12:10:55;26.60;59.60
8882;DHT22;4477;48.736;9.176;2022-10-22T12:13:27;26.80;59.80
8882;DHT22;4477;48.736;9.176;2022-10-22T12:15:57;26.70;56.30
8882;DHT22;4477;48.736;9.176;2022-10-22T12:18:26;26.90;59.80
8882;DHT22;4477;48.736;9.176;2022-10-22T12:20:54;26.70;59.50
8882;DHT22;4477;48.736;9.176;2022-10-22T12:23:25;26.80;60.10
8882;DHT22;4477;48.736;9.176;2022-10-22T12:25:54;27.30;56.70
8882;DHT22;4477;48.736;9.176;2022-10-22T12:28:20;27.40;57.50
8882;DHT22;4477;48.736;9.176;2022-10-22T12:30:49;28.20;52.00
8882;DHT22;4477;48.736;9.176;2022-10-22T12:33:18;27.70;52.10
8882;DHT22;4477;48.736;9.176;2022-10-22T12:35:47;26.40;55.20
8882;DHT22;4477;48.736;9.176;2022-10-22T12:38:18;25.40;57.60
8882;DHT22;4477;48.736;9.176;2022-10-22T12:40:46;25.90;59.40
8882;DHT22;4477;48.736;9.176;2022-10-22T12:43:15;25.80;58.50
8882;DHT22;4477;48.736;9.176;2022-10-22T12:45:43;25.80;57.20
8882;DHT22;4477;48.736;9.176;2022-10-22T12:48:16;26.30;57.10
8882;DHT22;4477;48.736;9.176;2022-10-22T12:50:47;27.10;52.60
8882;DHT22;4477;48.736;9.176;2022-10-22T12:53:17;27.20;56.10
8882;DHT22;4477;48.736;9.176;2022-10-22T12:55:45;27.40;52.80
8882;DHT22;4477;48.736;9.176;2022-10-22T12:58:16;27.30;56.30
8882;DHT22;4477;48.736;9.176;2022-10-22T13:00:45;27.10;54.50
8882;DHT22;4477;48.736;9.176;2022-10-22T13:03:29;26.80;54.00
8882;DHT22;4477;48.736;9.176;2022-10-22T13:06:08;26.90;55.70
8882;DHT22;4477;48.736;9.176;2022-10-22T13:08:38;27.20;52.10
8882;DHT22;4477;48.736;9.176;2022-10-22T13:11:07;27.10;52.60
8882;DHT22;4477;48.736;9.176;2022-10-22T13:13:41;27.00;54.70
8882;DHT22;4477;48.736;9.176;2022-10-22T13:16:18;27.30;54.00
8882;DHT22;4477;48.736;9.176;2022-10-22T13:18:47;27.20;52.90
8882;DHT22;4477;48.736;9.176;2022-10-22T13:21:23;27.60;52.80
8882;DHT22;4477;48.736;9.176;2022-10-22T13:23:55;26.20;55.10
8882;DHT22;4477;48.736;9.176;2022-10-22T13:26:24;25.60;57.50
8882;DHT22;4477;48.736;9.176;2022-10-22T13:28:56;25.70;56.40
8882;DHT22;4477;48.736;9.176;2022-10-22T13:31:27;24.90;57.90
8882;DHT22;4477;48.736;9.176;2022-10-22T13:33:59;24.60;58.40
8882;DHT22;4477;48.736;9.176;2022-10-22T13:36:27;24.90;60.50
8882;DHT22;4477;48.736;9.176;2022-10-22T13:38:54;25.10;56.50
8882;DHT22;4477;48.736;9.176;2022-10-22T13:41:23;24.30;58.00
8882;DHT22;4477;48.736;9.176;2022-10-22T13:43:51;23.20;61.30
8882;DHT22;4477;48.736;9.176;2022-10-22T13:46:18;21.80;65.90
8882;DHT22;4477;48.736;9.176;2022-10-22T13:48:46;21.90;70.90
8882;DHT22;4477;48.736;9.176;2022-10-22T13:51:17;22.30;63.10
8882;DHT22;4477;48.736;9.176;2022-10-22T13:53:44;21.90;65.70
8882;DHT22;4477;48.736;9.176;2022-10-22T13:56:13;21.90;67.40
8882;DHT22;4477;48.736;9.176;2022-10-22T13:58:41;22.60;64.30
8882;DHT22;4477;48.736;9.176;2022-10-22T14:01:17;23.90;62.00
8882;DHT22;4477;48.736;9.176;2022-10-22T14:03:47;25.40;57.10
8882;DHT22;4477;48.736;9.176;2022-10-22T14:06:18;26.40;54.40
8882;DHT22;4477;48.736;9.176;2022-10-22T14:08:48;27.30;54.00
8882;DHT22;4477;48.736;9.176;2022-10-22T14:11:18;27.40;53.40
8882;DHT22;4477;48.736;9.176;2022-10-22T14:13:45;27.70;52.10
8882;DHT22;4477;48.736;9.176;2022-10-22T14:16:16;28.10;50.70
8882;DHT22;4477;48.736;9.176;2022-10-22T14:18:44;28.00;51.00
8882;DHT22;4477;48.736;9.176;2022-10-22T14:21:13;29.00;48.20
8882;DHT22;4477;48.736;9.176;2022-10-22T14:23:45;28.60;50.40
8882;DHT22;4477;48.736;9.176;2022-10-22T14:26:19;28.10;49.90
8882;DHT22;4477;48.736;9.176;2022-10-22T14:28:47;27.90;49.40
8882;DHT22;4477;48.736;9.176;2022-10-22T14:31:15;28.40;48.60
8882;DHT22;4477;48.736;9.176;2022-10-22T14:33:42;28.70;48.20
8882;DHT22;4477;48.736;9.176;2022-10-22T14:36:12;28.30;52.00
8882;DHT22;4477;48.736;9.176;2022-10-22T14:38:39;27.60;54.10
8882;DHT22;4477;48.736;9.176;2022-10-22T14:41:15;27.00;53.30
8882;DHT22;4477;48.736;9.176;2022-10-22T14:43:44;26.00;54.40
8882;DHT22;4477;48.736;9.176;2022-10-22T14:46:12;25.60;56.10
8882;DHT22;4477;48.736;9.176;2022-10-22T14:48:39;24.90;60.00
8882;DHT22;4477;48.736;9.176;2022-10-22T14:51:06;24.60;58.20
8882;DHT22;4477;48.736;9.176;2022-10-22T14:53:33;24.50;58.50
8882;DHT22;4477;48.736;9.176;2022-10-22T15:08:20;24.60;58.10
8882;DHT22;4477;48.736;9.176;2022-10-22T15:10:56;22.50;60.40
8882;DHT22;4477;48.736;9.176;2022-10-22T15:13:25;21.30;63.10
8882;DHT22;4477;48.736;9.176;2022-10-22T15:15:53;20.40;67.80
8882;DHT22;4477;48.736;9.176;2022-10-22T15:18:20;19.60;69.10
8882;DHT22;4477;48.736;9.176;2022-10-22T15:20:54;19.00;72.30
8882;DHT22;4477;48.736;9.176;2022-10-22T15:23:20;18.50;74.30
8882;DHT22;4477;48.736;9.176;2022-10-22T15:25:47;18.20;76.70
8882;DHT22;4477;48.736;9.176;2022-10-22T15:30:41;17.90;76.20
8882;DHT22;4477;48.736;9.176;2022-10-22T15:33:10;17.50;77.70
8882;DHT22;4477;48.736;9.176;2022-10-22T15:35:36;17.40;78.90
8882;DHT22;4477;48.736;9.176;2022-10-22T15:38:03;17.20;79.80
8882;DHT22;4477;48.736;9.176;2022-10-22T15:40:33;17.00;80.50
8882;DHT22;4477;48.736;9.176;2022-10-22T15:43:00;16.80;81.60
8882;DHT22;4477;48.736;9.176;2022-10-22T15:45:27;16.70;83.40
8882;DHT22;4477;48.736;9.176;2022-10-22T15:52:50;16.40;83.80
8882;DHT22;4477;48.736;9.176;2022-10-22T15:55:17;16.10;84.70
8882;DHT22;4477;48.736;9.176;2022-10-22T15:57:43;16.00;87.30
8882;DHT22;4477;48.736;9.176;2022-10-22T16:00:11;15.80;86.60
8882;DHT22;4477;48.736;9.176;2022-10-22T16:02:38;15.60;89.50
8882;DHT22;4477;48.736;9.176;2022-10-22T16:05:06;15.40;89.10
8882;DHT22;4477;48.736;9.176;2022-10-22T16:07:34;15.30;90.10
8882;DHT22;4477;48.736;9.176;2022-10-22T16:10:01;15.10;90.70
8882;DHT22;4477;48.736;9.176;2022-10-22T16:12:28;14.90;91.10
8882;DHT22;4477;48.736;9.176;2022-10-22T16:14:55;14.80;92.20
8882;DHT22;4477;48.736;9.176;2022-10-22T16:17:22;14.50;93.00
8882;DHT22;4477;48.736;9.176;2022-10-22T16:19:48;14.30;94.10
8882;DHT22;4477;48.736;9.176;2022-10-22T16:22:15;14.10;94.90
8882;DHT22;4477;48.736;9.176;2022-10-22T16:24:43;14.00;96.40
8882;DHT22;4477;48.736;9.176;2022-10-22T16:27:10;13.80;97.80
8882;DHT22;4477;48.736;9.176;2022-10-22T16:29:37;13.60;99.50
8882;DHT22;4477;48.736;9.176;2022-10-22T16:32:05;13.40;99.90
8882;DHT22;4477;48.736;9.176;2022-10-22T16:34:32;13.20;99.90
8882;DHT22;4477;48.736;9.176;2022-10-22T16:36:58;13.20;99.90
8882;DHT22;4477;48.736;9.176;2022-10-22T16:39:25;13.00;99.90
8882;DHT22;4477;48.736;9.176;2022-10-22T16:41:53;12.80;99.90
8882;DHT22;4477;48.736;9.176;2022-10-22T16:44:20;12.70;99.90
8882;DHT22;4477;48.736;9.176;2022-10-22T16:46:48;12.50;99.90